createdAt,value
2022-11-08T00:00:00.048Z,131
2022-11-08T00:00:31.500Z,132
2022-11-08T00:01:03.787Z,239
2022-11-08T00:01:34.114Z,239
2022-11-08T00:01:51.042Z,148
2022-11-08T00:02:23.342Z,149
2022-11-08T00:02:40.309Z,255
2022-11-08T00:03:11.931Z,152
2022-11-08T00:03:34.151Z,257
2022-11-08T00:03:58.937Z,165
2022-11-08T00:04:31.162Z,165
2022-11-08T00:05:03.177Z,162
2022-11-08T00:05:34.211Z,162
2022-11-08T00:05:51.075Z,161
2022-11-08T00:06:23.823Z,161
2022-11-08T00:06:40.994Z,161
2022-11-08T00:07:11.183Z,161
2022-11-08T00:07:34.152Z,155
2022-11-08T00:07:58.942Z,225
2022-11-08T00:08:31.931Z,129
2022-11-08T00:09:03.081Z,286
2022-11-08T00:09:35.234Z,275
2022-11-08T00:10:07.127Z,270
2022-11-08T00:10:34.060Z,217
2022-11-08T00:10:55.232Z,166
2022-11-08T00:11:27.093Z,170
2022-11-08T00:11:59.808Z,299
2022-11-08T00:12:30.950Z,205
2022-11-08T00:13:04.143Z,251
2022-11-08T00:13:34.482Z,279
2022-11-08T00:14:07.773Z,78
2022-11-08T00:14:34.084Z,118
2022-11-08T00:14:55.144Z,122
2022-11-08T00:15:27.400Z,122
2022-11-08T00:16:15.773Z,126
2022-11-08T00:16:34.065Z,126
2022-11-08T00:17:03.017Z,126
2022-11-08T00:17:34.218Z,126
2022-11-08T00:17:51.108Z,126
2022-11-08T00:18:23.873Z,126
2022-11-08T00:18:41.028Z,126
2022-11-08T00:19:11.217Z,126
2022-11-08T00:19:34.576Z,126
2022-11-08T00:19:59.095Z,245
2022-11-08T00:20:32.004Z,252
2022-11-08T00:21:02.944Z,252
2022-11-08T00:21:35.180Z,83
2022-11-08T00:22:07.155Z,26
2022-11-08T00:22:34.253Z,74
2022-11-08T00:22:54.950Z,70
2022-11-08T00:23:27.050Z,208
2022-11-08T00:23:59.653Z,212
2022-11-08T00:24:31.186Z,213
2022-11-08T00:25:03.857Z,114
2022-11-08T00:25:34.206Z,95
2022-11-08T00:26:06.383Z,333
2022-11-08T00:26:23.607Z,243
2022-11-08T00:26:40.681Z,217
2022-11-08T00:27:10.998Z,248
2022-11-08T00:27:34.216Z,250
2022-11-08T00:27:58.943Z,196
2022-11-08T00:28:31.684Z,182
2022-11-08T00:29:03.015Z,205
2022-11-08T00:29:34.838Z,205
2022-11-08T00:30:07.191Z,281
2022-11-08T00:30:34.059Z,294
2022-11-08T00:30:55.327Z,211
2022-11-08T00:31:26.973Z,211
2022-11-08T00:31:59.882Z,310
2022-11-08T00:32:31.008Z,267
2022-11-08T00:33:03.944Z,266
2022-11-08T00:33:34.228Z,266
2022-11-08T00:33:50.957Z,266
2022-11-08T00:34:22.984Z,267
2022-11-08T00:34:40.142Z,267
2022-11-08T00:35:12.214Z,267
2022-11-08T00:35:34.062Z,267
2022-11-08T00:35:59.030Z,267
2022-11-08T00:36:30.974Z,267
2022-11-08T00:37:03.125Z,267
2022-11-08T00:37:34.875Z,267
2022-11-08T00:38:06.943Z,282
2022-11-08T00:38:34.244Z,288
2022-11-08T00:38:55.003Z,296
2022-11-08T00:39:27.650Z,295
2022-11-08T00:39:59.077Z,305
2022-11-08T00:40:32.003Z,305
2022-11-08T00:41:03.052Z,40
2022-11-08T00:41:35.033Z,40
2022-11-08T00:42:06.975Z,40
2022-11-08T00:42:34.238Z,40
2022-11-08T00:42:55.231Z,40
2022-11-08T00:43:27.128Z,41
2022-11-08T00:43:59.647Z,73
2022-11-08T00:44:30.991Z,73
2022-11-08T00:45:04.170Z,73
2022-11-08T00:45:34.429Z,73
2022-11-08T00:45:51.150Z,73
2022-11-08T00:46:22.943Z,75
2022-11-08T00:46:40.108Z,75
2022-11-08T00:47:11.980Z,75
2022-11-08T00:47:34.247Z,75
2022-11-08T00:47:59.160Z,110
2022-11-08T00:48:34.500Z,110
2022-11-08T00:49:03.441Z,110
2022-11-08T00:49:34.067Z,110
2022-11-08T00:49:51.108Z,110
2022-11-08T00:50:23.848Z,142
2022-11-08T00:50:40.911Z,199
2022-11-08T00:51:10.955Z,273
2022-11-08T00:51:34.257Z,291
2022-11-08T00:51:59.008Z,270
2022-11-08T00:52:32.007Z,271
2022-11-08T00:53:02.977Z,280
2022-11-08T00:53:35.165Z,250
2022-11-08T00:54:06.968Z,299
2022-11-08T00:54:34.424Z,238
2022-11-08T00:54:55.183Z,190
2022-11-08T00:55:27.143Z,237
2022-11-08T00:55:59.905Z,262
2022-11-08T00:56:31.120Z,262
2022-11-08T00:57:03.803Z,242
2022-11-08T00:57:47.260Z,138
2022-11-08T00:58:07.864Z,301
2022-11-08T00:58:34.071Z,227
2022-11-08T00:58:55.122Z,245
2022-11-08T00:59:27.144Z,270
2022-11-08T00:59:59.012Z,207
2022-11-08T01:00:31.101Z,118
2022-11-08T01:01:03.171Z,133
2022-11-08T01:01:34.475Z,107
2022-11-08T01:01:51.191Z,345
2022-11-08T01:02:23.866Z,231
2022-11-08T01:02:41.008Z,343
2022-11-08T01:03:11.084Z,265
2022-11-08T01:03:34.070Z,183
2022-11-08T01:03:59.079Z,205
2022-11-08T01:04:31.868Z,227
2022-11-08T01:05:03.451Z,257
2022-11-08T01:05:34.166Z,260
2022-11-08T01:05:51.293Z,281
2022-11-08T01:06:23.368Z,232
2022-11-08T01:06:40.533Z,241
2022-11-08T01:07:12.220Z,276
2022-11-08T01:07:34.210Z,249
2022-11-08T01:07:59.141Z,233
2022-11-08T01:08:31.092Z,279
2022-11-08T01:09:02.934Z,223
2022-11-08T01:09:34.101Z,223
2022-11-08T01:09:50.973Z,201
2022-11-08T01:10:23.760Z,317
2022-11-08T01:10:40.802Z,330
2022-11-08T01:11:10.981Z,258
2022-11-08T01:11:34.149Z,240
2022-11-08T01:11:58.940Z,243
2022-11-08T01:12:31.660Z,244
2022-11-08T01:13:03.103Z,305
2022-11-08T01:13:34.823Z,286
2022-11-08T01:14:06.987Z,219
2022-11-08T01:14:34.044Z,218
2022-11-08T01:14:55.038Z,219
2022-11-08T01:15:27.175Z,205
2022-11-08T01:15:59.904Z,256
2022-11-08T01:16:31.108Z,142
2022-11-08T01:17:03.726Z,147
2022-11-08T01:17:34.679Z,104
2022-11-08T01:18:07.928Z,78
2022-11-08T01:18:34.064Z,84
2022-11-08T01:18:55.159Z,223
2022-11-08T01:19:27.114Z,72
2022-11-08T01:19:59.033Z,268
2022-11-08T01:20:31.116Z,270
2022-11-08T01:21:03.186Z,128
2022-11-08T01:21:34.311Z,161
2022-11-08T01:21:51.013Z,175
2022-11-08T01:22:23.925Z,220
2022-11-08T01:22:41.118Z,143
2022-11-08T01:23:11.114Z,42
2022-11-08T01:23:34.041Z,299
2022-11-08T01:23:58.921Z,248
2022-11-08T01:24:31.951Z,271
2022-11-08T01:25:03.313Z,255
2022-11-08T01:25:35.119Z,47
2022-11-08T01:26:06.947Z,122
2022-11-08T01:26:34.113Z,123
2022-11-08T01:26:54.894Z,127
2022-11-08T01:27:26.974Z,165
2022-11-08T01:27:59.711Z,142
2022-11-08T01:28:31.122Z,144
2022-11-08T01:29:03.619Z,55
2022-11-08T01:29:34.176Z,106
2022-11-08T01:29:50.971Z,108
2022-11-08T01:30:23.148Z,253
2022-11-08T01:30:40.245Z,149
2022-11-08T01:31:11.658Z,297
2022-11-08T01:31:34.066Z,200
2022-11-08T01:31:59.155Z,284
2022-11-08T01:32:31.082Z,97
2022-11-08T01:33:03.059Z,172
2022-11-08T01:33:34.254Z,180
2022-11-08T01:33:51.542Z,23
2022-11-08T01:34:23.795Z,124
2022-11-08T01:34:40.931Z,41
2022-11-08T01:35:11.206Z,319
2022-11-08T01:35:34.079Z,280
2022-11-08T01:35:59.439Z,274
2022-11-08T01:36:31.768Z,261
2022-11-08T01:37:03.101Z,210
2022-11-08T01:37:35.138Z,264
2022-11-08T01:38:06.940Z,225
2022-11-08T01:38:34.275Z,216
2022-11-08T01:39:11.075Z,248
2022-11-08T01:39:34.536Z,248
2022-11-08T01:39:59.718Z,43
2022-11-08T01:40:31.105Z,172
2022-11-08T01:41:03.798Z,167
2022-11-08T01:41:34.112Z,167
2022-11-08T01:41:51.169Z,169
2022-11-08T01:42:23.716Z,165
2022-11-08T01:42:54.903Z,170
2022-11-08T01:43:27.827Z,130
2022-11-08T01:43:59.108Z,106
2022-11-08T01:44:31.633Z,168
2022-11-08T01:45:03.100Z,175
2022-11-08T01:45:35.181Z,173
2022-11-08T01:46:07.077Z,249
2022-11-08T01:46:35.114Z,262
2022-11-08T01:46:54.968Z,148
2022-11-08T01:47:27.044Z,50
2022-11-08T01:47:59.537Z,273
2022-11-08T01:48:31.087Z,38
2022-11-08T01:49:03.792Z,268
2022-11-08T01:49:34.064Z,116
2022-11-08T01:49:51.017Z,150
2022-11-08T01:50:23.213Z,267
2022-11-08T01:50:40.181Z,255
2022-11-08T01:51:11.690Z,191
2022-11-08T01:51:34.307Z,154
2022-11-08T01:51:59.083Z,154
2022-11-08T01:52:31.101Z,258
2022-11-08T01:53:03.054Z,244
2022-11-08T01:53:34.068Z,64
2022-11-08T01:53:51.004Z,195
2022-11-08T01:54:24.009Z,227
2022-11-08T01:54:41.316Z,87
2022-11-08T01:55:11.222Z,38
2022-11-08T01:55:34.087Z,38
2022-11-08T01:55:59.110Z,330
2022-11-08T01:56:31.794Z,261
2022-11-08T01:57:03.102Z,244
2022-11-08T01:57:35.059Z,281
2022-11-08T01:58:06.938Z,267
2022-11-08T01:58:34.176Z,203
2022-11-08T01:58:55.067Z,196
2022-11-08T01:59:27.098Z,267
2022-11-08T01:59:59.627Z,150
2022-11-08T02:00:31.705Z,201
2022-11-08T02:01:04.054Z,89
2022-11-08T02:01:34.422Z,88
2022-11-08T02:01:50.937Z,124
2022-11-08T02:02:22.986Z,107
2022-11-08T02:02:40.094Z,143
2022-11-08T02:03:11.838Z,214
2022-11-08T02:03:34.087Z,80
2022-11-08T02:03:59.125Z,80
2022-11-08T02:04:30.929Z,80
2022-11-08T02:05:03.193Z,79
2022-11-08T02:05:34.791Z,309
2022-11-08T02:06:07.666Z,291
2022-11-08T02:06:34.282Z,211
2022-11-08T02:06:54.930Z,211
2022-11-08T02:07:27.040Z,211
2022-11-08T02:07:59.211Z,211
2022-11-08T02:08:30.935Z,270
2022-11-08T02:09:02.983Z,269
2022-11-08T02:09:34.160Z,289
2022-11-08T02:10:06.526Z,269
2022-11-08T02:10:23.570Z,240
2022-11-08T02:10:40.862Z,152
2022-11-08T02:11:10.986Z,126
2022-11-08T02:11:34.378Z,110
2022-11-08T02:11:59.113Z,71
2022-11-08T02:12:36.584Z,71
2022-11-08T02:13:05.227Z,71
2022-11-08T02:13:34.100Z,71
2022-11-08T02:13:51.889Z,71
2022-11-08T02:14:23.199Z,71
2022-11-08T02:14:40.279Z,257
2022-11-08T02:15:11.164Z,218
2022-11-08T02:15:34.262Z,218
2022-11-08T02:16:00.147Z,305
2022-11-08T02:16:31.159Z,343
2022-11-08T02:17:03.615Z,285
2022-11-08T02:17:34.084Z,291
2022-11-08T02:17:50.965Z,250
2022-11-08T02:18:23.078Z,268
2022-11-08T02:18:40.230Z,268
2022-11-08T02:19:11.604Z,268
2022-11-08T02:19:34.102Z,266
2022-11-08T02:19:58.958Z,330
2022-11-08T02:20:31.219Z,299
2022-11-08T02:21:03.065Z,299
2022-11-08T02:21:34.316Z,299
2022-11-08T02:21:50.979Z,299
2022-11-08T02:22:23.811Z,299
2022-11-08T02:22:40.921Z,299
2022-11-08T02:23:11.185Z,299
2022-11-08T02:23:34.060Z,299
2022-11-08T02:23:59.006Z,299
2022-11-08T02:24:31.675Z,236
2022-11-08T02:25:03.190Z,237
2022-11-08T02:25:35.216Z,237
2022-11-08T02:26:07.409Z,296
2022-11-08T02:26:34.246Z,296
2022-11-08T02:26:55.127Z,296
2022-11-08T02:27:27.127Z,294
2022-11-08T02:27:59.703Z,294
2022-11-08T02:28:30.984Z,294
2022-11-08T02:29:03.708Z,294
2022-11-08T02:29:34.186Z,294
2022-11-08T02:29:51.185Z,294
2022-11-08T02:30:23.174Z,294
2022-11-08T02:30:40.356Z,294
2022-11-08T02:31:11.956Z,294
2022-11-08T02:31:34.223Z,294
2022-11-08T02:31:59.123Z,295
2022-11-08T02:32:30.917Z,295
2022-11-08T02:33:02.990Z,294
2022-11-08T02:33:34.091Z,294
2022-11-08T02:33:51.136Z,294
2022-11-08T02:34:23.667Z,294
2022-11-08T02:34:40.734Z,295
2022-11-08T02:35:11.071Z,310
2022-11-08T02:35:34.240Z,310
2022-11-08T02:35:59.246Z,310
2022-11-08T02:36:31.643Z,262
2022-11-08T02:37:02.905Z,280
2022-11-08T02:37:35.153Z,292
2022-11-08T02:38:07.074Z,94
2022-11-08T02:38:34.239Z,37
2022-11-08T02:38:54.926Z,37
2022-11-08T02:39:26.923Z,28
2022-11-08T02:39:59.884Z,19
2022-11-08T02:40:31.255Z,20
2022-11-08T02:41:03.790Z,19
2022-11-08T02:41:34.079Z,19
2022-11-08T02:41:51.023Z,19
2022-11-08T02:42:23.187Z,19
2022-11-08T02:42:40.201Z,30
2022-11-08T02:43:11.636Z,31
2022-11-08T02:43:34.180Z,31
2022-11-08T02:43:58.885Z,32
2022-11-08T02:44:34.287Z,32
2022-11-08T02:45:03.153Z,31
2022-11-08T02:45:34.266Z,31
2022-11-08T02:45:51.280Z,15
2022-11-08T02:46:23.975Z,17
2022-11-08T02:46:41.162Z,17
2022-11-08T02:47:11.111Z,28
2022-11-08T02:47:34.115Z,28
2022-11-08T02:47:58.901Z,28
2022-11-08T02:48:32.013Z,28
2022-11-08T02:49:03.080Z,28
2022-11-08T02:49:35.336Z,28
2022-11-08T02:50:06.995Z,28
2022-11-08T02:50:34.290Z,28
2022-11-08T02:50:55.143Z,28
2022-11-08T02:51:27.089Z,28
2022-11-08T02:51:59.704Z,28
2022-11-08T02:52:30.902Z,28
2022-11-08T02:53:03.604Z,28
2022-11-08T02:53:34.250Z,27
2022-11-08T02:53:51.168Z,34
2022-11-08T02:54:22.927Z,34
2022-11-08T02:54:40.053Z,34
2022-11-08T02:55:11.935Z,34
2022-11-08T02:55:34.347Z,34
2022-11-08T02:55:59.199Z,34
2022-11-08T02:56:30.931Z,34
2022-11-08T02:57:03.011Z,34
2022-11-08T02:57:34.240Z,34
2022-11-08T02:57:51.166Z,34
2022-11-08T02:58:23.741Z,34
2022-11-08T02:58:40.926Z,34
2022-11-08T02:59:11.119Z,34
2022-11-08T02:59:34.258Z,34
2022-11-08T02:59:59.089Z,34
2022-11-08T03:00:31.868Z,34
2022-11-08T03:01:02.962Z,34
2022-11-08T03:01:35.259Z,34
2022-11-08T03:02:07.061Z,34
2022-11-08T03:02:34.321Z,34
2022-11-08T03:02:54.939Z,34
2022-11-08T03:03:26.970Z,34
2022-11-08T03:03:59.935Z,34
2022-11-08T03:04:31.318Z,34
2022-11-08T03:05:03.807Z,34
2022-11-08T03:05:34.135Z,34
2022-11-08T03:05:51.133Z,34
2022-11-08T03:06:22.898Z,19
2022-11-08T03:06:39.997Z,324
2022-11-08T03:07:11.849Z,325
2022-11-08T03:07:34.064Z,325
2022-11-08T03:07:59.082Z,325
2022-11-08T03:08:30.869Z,325
2022-11-08T03:09:02.969Z,324
2022-11-08T03:09:37.628Z,324
2022-11-08T03:10:07.177Z,3
2022-11-08T03:10:34.268Z,3
2022-11-08T03:10:55.018Z,3
2022-11-08T03:11:27.748Z,18
2022-11-08T03:11:59.132Z,23
2022-11-08T03:12:31.653Z,8
2022-11-08T03:13:02.936Z,8
2022-11-08T03:13:35.196Z,8
2022-11-08T03:14:07.101Z,8
2022-11-08T03:14:34.209Z,8
2022-11-08T03:14:54.884Z,8
2022-11-08T03:15:27.215Z,8
2022-11-08T03:15:59.610Z,8
2022-11-08T03:16:30.963Z,43
2022-11-08T03:17:03.701Z,43
2022-11-08T03:17:34.214Z,45
2022-11-08T03:18:08.127Z,45
2022-11-08T03:18:34.255Z,45
2022-11-08T03:18:54.896Z,45
2022-11-08T03:19:26.997Z,34
2022-11-08T03:19:59.104Z,30
2022-11-08T03:20:33.166Z,41
2022-11-08T03:21:02.924Z,34
2022-11-08T03:21:34.118Z,34
2022-11-08T03:21:51.153Z,34
2022-11-08T03:22:23.655Z,33
2022-11-08T03:22:40.793Z,20
2022-11-08T03:23:10.949Z,21
2022-11-08T03:23:34.282Z,11
2022-11-08T03:23:59.148Z,21
2022-11-08T03:24:31.587Z,20
2022-11-08T03:25:03.034Z,20
2022-11-08T03:25:34.941Z,20
2022-11-08T03:26:07.034Z,20
2022-11-08T03:26:34.487Z,20
2022-11-08T03:26:55.088Z,25
2022-11-08T03:27:26.946Z,25
2022-11-08T03:27:59.931Z,21
2022-11-08T03:28:31.029Z,21
2022-11-08T03:29:03.713Z,21
2022-11-08T03:29:34.268Z,21
2022-11-08T03:29:50.982Z,47
2022-11-08T03:30:23.248Z,47
2022-11-08T03:30:41.531Z,298
2022-11-08T03:31:11.634Z,286
2022-11-08T03:31:34.093Z,295
2022-11-08T03:32:15.826Z,307
2022-11-08T03:32:34.118Z,306
2022-11-08T03:33:03.059Z,304
2022-11-08T03:33:34.255Z,301
2022-11-08T03:33:51.186Z,301
2022-11-08T03:34:23.915Z,301
2022-11-08T03:34:41.011Z,301
2022-11-08T03:35:11.222Z,301
2022-11-08T03:35:34.128Z,301
2022-11-08T03:35:59.048Z,288
2022-11-08T03:36:31.846Z,28
2022-11-08T03:37:03.002Z,56
2022-11-08T03:37:35.369Z,80
2022-11-08T03:38:06.936Z,18
2022-11-08T03:38:36.786Z,14
2022-11-08T03:38:54.966Z,4
2022-11-08T03:39:27.121Z,3
2022-11-08T03:39:59.601Z,275
2022-11-08T03:40:31.012Z,294
2022-11-08T03:41:03.866Z,294
2022-11-08T03:41:34.098Z,294
2022-11-08T03:41:51.141Z,294
2022-11-08T03:42:22.907Z,294
2022-11-08T03:42:40.081Z,294
2022-11-08T03:43:11.810Z,294
2022-11-08T03:43:34.235Z,294
2022-11-08T03:43:59.097Z,278
2022-11-08T03:44:31.071Z,268
2022-11-08T03:45:03.229Z,305
2022-11-08T03:45:34.120Z,305
2022-11-08T03:45:51.175Z,304
2022-11-08T03:46:23.612Z,300
2022-11-08T03:46:40.772Z,300
2022-11-08T03:47:10.982Z,300
2022-11-08T03:47:34.504Z,300
2022-11-08T03:47:59.014Z,300
2022-11-08T03:48:31.691Z,300
2022-11-08T03:49:02.909Z,300
2022-11-08T03:49:35.006Z,300
2022-11-08T03:50:07.192Z,300
2022-11-08T03:50:34.121Z,300
2022-11-08T03:50:55.162Z,300
2022-11-08T03:51:27.018Z,300
2022-11-08T03:51:59.876Z,300
2022-11-08T03:52:30.998Z,300
2022-11-08T03:53:03.600Z,300
2022-11-08T03:53:34.227Z,300
2022-11-08T03:53:50.980Z,327
2022-11-08T03:54:22.920Z,324
2022-11-08T03:54:40.087Z,317
2022-11-08T03:55:12.072Z,32
2022-11-08T03:55:34.541Z,6
2022-11-08T03:55:58.977Z,6
2022-11-08T03:56:30.977Z,7
2022-11-08T03:57:03.037Z,10
2022-11-08T03:57:34.543Z,10
2022-11-08T03:57:51.117Z,354
2022-11-08T03:58:23.603Z,354
2022-11-08T03:58:40.926Z,93
2022-11-08T03:59:11.097Z,92
2022-11-08T03:59:34.568Z,92
2022-11-08T03:59:59.155Z,76
2022-11-08T04:00:31.851Z,57
2022-11-08T04:01:02.975Z,17
2022-11-08T04:01:35.889Z,37
2022-11-08T04:02:07.542Z,283
2022-11-08T04:02:34.307Z,283
2022-11-08T04:02:54.904Z,283
2022-11-08T04:03:26.939Z,346
2022-11-08T04:03:59.695Z,319
2022-11-08T04:04:31.004Z,54
2022-11-08T04:05:03.940Z,54
2022-11-08T04:05:34.136Z,54
2022-11-08T04:05:51.170Z,11
2022-11-08T04:06:23.090Z,15
2022-11-08T04:06:40.260Z,352
2022-11-08T04:07:11.927Z,312
2022-11-08T04:07:34.247Z,287
2022-11-08T04:07:59.134Z,56
2022-11-08T04:08:31.074Z,54
2022-11-08T04:09:02.903Z,54
2022-11-08T04:09:34.106Z,54
2022-11-08T04:09:51.146Z,55
2022-11-08T04:10:23.733Z,17
2022-11-08T04:10:40.794Z,17
2022-11-08T04:11:11.381Z,298
2022-11-08T04:11:34.097Z,295
2022-11-08T04:11:58.908Z,296
2022-11-08T04:12:31.788Z,310
2022-11-08T04:13:03.075Z,310
2022-11-08T04:13:34.954Z,310
2022-11-08T04:14:06.904Z,310
2022-11-08T04:14:34.082Z,302
2022-11-08T04:14:55.114Z,302
2022-11-08T04:15:27.224Z,273
2022-11-08T04:15:59.843Z,281
2022-11-08T04:16:31.294Z,3
2022-11-08T04:17:03.615Z,334
2022-11-08T04:17:34.220Z,334
2022-11-08T04:17:51.043Z,320
2022-11-08T04:18:23.058Z,319
2022-11-08T04:18:40.024Z,324
2022-11-08T04:19:11.842Z,304
2022-11-08T04:19:34.202Z,305
2022-11-08T04:19:58.916Z,309
2022-11-08T04:20:31.087Z,309
2022-11-08T04:21:02.996Z,310
2022-11-08T04:21:34.741Z,7
2022-11-08T04:22:07.120Z,7
2022-11-08T04:22:34.287Z,7
2022-11-08T04:22:54.959Z,7
2022-11-08T04:23:27.957Z,7
2022-11-08T04:23:59.130Z,7
2022-11-08T04:24:31.629Z,7
2022-11-08T04:25:03.005Z,7
2022-11-08T04:25:35.442Z,7
2022-11-08T04:26:07.057Z,7
2022-11-08T04:26:34.084Z,7
2022-11-08T04:26:54.965Z,30
2022-11-08T04:27:26.943Z,19
2022-11-08T04:27:59.754Z,19
2022-11-08T04:28:31.041Z,19
2022-11-08T04:29:03.896Z,18
2022-11-08T04:29:34.456Z,18
2022-11-08T04:29:50.999Z,19
2022-11-08T04:30:23.192Z,18
2022-11-08T04:30:40.261Z,18
2022-11-08T04:31:11.614Z,9
2022-11-08T04:31:34.123Z,19
2022-11-08T04:31:58.953Z,19
2022-11-08T04:32:31.066Z,21
2022-11-08T04:33:03.050Z,24
2022-11-08T04:33:34.491Z,23
2022-11-08T04:33:51.167Z,19
2022-11-08T04:34:23.759Z,19
2022-11-08T04:34:40.909Z,19
2022-11-08T04:35:11.313Z,19
2022-11-08T04:35:34.122Z,19
2022-11-08T04:35:59.123Z,19
2022-11-08T04:36:32.011Z,19
2022-11-08T04:37:02.939Z,19
2022-11-08T04:37:35.261Z,21
2022-11-08T04:38:06.915Z,27
2022-11-08T04:38:34.265Z,33
2022-11-08T04:38:54.941Z,32
2022-11-08T04:39:27.095Z,31
2022-11-08T04:39:59.591Z,17
2022-11-08T04:40:31.095Z,16
2022-11-08T04:41:03.758Z,14
2022-11-08T04:41:34.096Z,14
2022-11-08T04:41:51.188Z,21
2022-11-08T04:42:23.216Z,30
2022-11-08T04:42:40.086Z,33
2022-11-08T04:43:11.802Z,25
2022-11-08T04:43:34.364Z,11
2022-11-08T04:43:59.164Z,33
2022-11-08T04:44:30.949Z,69
2022-11-08T04:45:03.100Z,52
2022-11-08T04:45:34.307Z,44
2022-11-08T04:45:51.310Z,40
2022-11-08T04:46:23.734Z,39
2022-11-08T04:46:41.016Z,39
2022-11-08T04:47:11.225Z,46
2022-11-08T04:47:39.437Z,46
2022-11-08T04:47:59.094Z,46
2022-11-08T04:48:31.688Z,46
2022-11-08T04:49:02.989Z,46
2022-11-08T04:49:35.138Z,30
2022-11-08T04:50:07.319Z,30
2022-11-08T04:50:34.206Z,30
2022-11-08T04:50:55.057Z,30
2022-11-08T04:51:26.941Z,30
2022-11-08T04:51:59.933Z,42
2022-11-08T04:52:31.113Z,41
2022-11-08T04:53:03.619Z,41
2022-11-08T04:53:34.082Z,41
2022-11-08T04:53:51.288Z,50
2022-11-08T04:54:23.082Z,46
2022-11-08T04:54:40.289Z,46
2022-11-08T04:55:11.887Z,46
2022-11-08T04:55:34.228Z,46
2022-11-08T04:55:59.155Z,46
2022-11-08T04:56:31.180Z,46
2022-11-08T04:57:02.916Z,46
2022-11-08T04:57:34.158Z,46
2022-11-08T04:57:51.075Z,47
2022-11-08T04:58:23.639Z,46
2022-11-08T04:58:40.727Z,46
2022-11-08T04:59:12.065Z,46
2022-11-08T04:59:35.153Z,46
2022-11-08T04:59:58.941Z,46
2022-11-08T05:00:32.101Z,46
2022-11-08T05:01:03.208Z,46
2022-11-08T05:01:35.569Z,46
2022-11-08T05:02:06.989Z,46
2022-11-08T05:02:34.254Z,46
2022-11-08T05:02:55.204Z,46
2022-11-08T05:03:26.912Z,46
2022-11-08T05:03:59.724Z,15
2022-11-08T05:04:30.998Z,17
2022-11-08T05:05:04.000Z,17
2022-11-08T05:05:34.243Z,17
2022-11-08T05:05:51.165Z,17
2022-11-08T05:06:22.956Z,21
2022-11-08T05:06:40.189Z,123
2022-11-08T05:07:11.924Z,118
2022-11-08T05:07:34.108Z,46
2022-11-08T05:07:58.920Z,19
2022-11-08T05:08:31.202Z,34
2022-11-08T05:09:03.017Z,26
2022-11-08T05:09:34.489Z,18
2022-11-08T05:09:51.199Z,18
2022-11-08T05:10:23.981Z,18
2022-11-08T05:10:41.014Z,34
2022-11-08T05:11:11.118Z,34
2022-11-08T05:11:34.217Z,34
2022-11-08T05:11:59.102Z,34
2022-11-08T05:12:31.759Z,34
2022-11-08T05:13:02.935Z,34
2022-11-08T05:13:35.234Z,34
2022-11-08T05:14:07.139Z,34
2022-11-08T05:14:34.283Z,34
2022-11-08T05:14:54.928Z,34
2022-11-08T05:15:27.340Z,34
2022-11-08T05:15:59.929Z,34
2022-11-08T05:16:31.093Z,19
2022-11-08T05:17:03.825Z,30
2022-11-08T05:17:34.102Z,30
2022-11-08T05:18:06.340Z,30
2022-11-08T05:18:23.869Z,34
2022-11-08T05:18:42.158Z,32
2022-11-08T05:19:13.342Z,32
2022-11-08T05:19:34.114Z,32
2022-11-08T05:19:58.990Z,32
2022-11-08T05:20:32.009Z,32
2022-11-08T05:21:03.085Z,32
2022-11-08T05:21:35.093Z,32
2022-11-08T05:22:06.943Z,316
2022-11-08T05:22:34.080Z,317
2022-11-08T05:22:55.135Z,68
2022-11-08T05:23:26.942Z,37
2022-11-08T05:23:59.881Z,42
2022-11-08T05:24:31.037Z,31
2022-11-08T05:25:03.703Z,31
2022-11-08T05:25:34.303Z,32
2022-11-08T05:25:51.142Z,31
2022-11-08T05:26:22.937Z,31
2022-11-08T05:26:40.140Z,30
2022-11-08T05:27:11.704Z,1
2022-11-08T05:27:34.110Z,352
2022-11-08T05:27:58.909Z,351
2022-11-08T05:28:31.002Z,348
2022-11-08T05:29:03.060Z,348
2022-11-08T05:29:38.529Z,348
2022-11-08T05:29:51.026Z,348
2022-11-08T05:30:24.020Z,348
2022-11-08T05:30:41.031Z,348
2022-11-08T05:31:11.260Z,340
2022-11-08T05:31:34.157Z,326
2022-11-08T05:31:58.920Z,326
2022-11-08T05:32:31.866Z,326
2022-11-08T05:33:03.113Z,326
2022-11-08T05:33:35.306Z,326
2022-11-08T05:34:07.039Z,326
2022-11-08T05:34:34.495Z,326
2022-11-08T05:34:54.953Z,326
2022-11-08T05:35:27.276Z,326
2022-11-08T05:36:04.664Z,326
2022-11-08T05:36:30.922Z,326
2022-11-08T05:37:03.826Z,326
2022-11-08T05:37:34.311Z,326
2022-11-08T05:37:51.437Z,19
2022-11-08T05:38:22.930Z,28
2022-11-08T05:38:40.105Z,80
2022-11-08T05:39:11.882Z,70
2022-11-08T05:39:34.322Z,70
2022-11-08T05:39:59.138Z,70
2022-11-08T05:40:33.351Z,72
2022-11-08T05:41:02.888Z,71
2022-11-08T05:41:34.186Z,71
2022-11-08T05:41:51.157Z,71
2022-11-08T05:42:23.657Z,9
2022-11-08T05:42:40.868Z,9
2022-11-08T05:43:11.057Z,33
2022-11-08T05:43:34.307Z,8
2022-11-08T05:43:59.069Z,19
2022-11-08T05:44:31.733Z,25
2022-11-08T05:45:19.166Z,281
2022-11-08T05:45:51.013Z,305
2022-11-08T05:46:23.133Z,305
2022-11-08T05:46:40.921Z,305
2022-11-08T05:47:10.990Z,306
2022-11-08T05:47:34.331Z,306
2022-11-08T05:47:59.102Z,305
2022-11-08T05:48:31.121Z,288
2022-11-08T05:49:03.913Z,288
2022-11-08T05:49:34.109Z,305
2022-11-08T05:49:50.995Z,305
2022-11-08T05:50:23.265Z,305
2022-11-08T05:50:40.176Z,304
2022-11-08T05:51:11.743Z,242
2022-11-08T05:51:34.267Z,241
2022-11-08T05:51:59.140Z,286
2022-11-08T05:52:31.102Z,307
2022-11-08T05:53:02.976Z,311
2022-11-08T05:53:34.179Z,319
2022-11-08T05:53:51.009Z,317
2022-11-08T05:54:23.797Z,315
2022-11-08T05:54:40.843Z,38
2022-11-08T05:55:11.199Z,96
2022-11-08T05:55:35.058Z,96
2022-11-08T05:55:59.205Z,268
2022-11-08T05:56:31.184Z,268
2022-11-08T05:57:02.962Z,304
2022-11-08T05:57:34.107Z,304
2022-11-08T05:57:51.901Z,304
2022-11-08T05:58:23.151Z,347
2022-11-08T05:58:40.265Z,316
2022-11-08T05:59:11.137Z,327
2022-11-08T05:59:34.148Z,327
2022-11-08T05:59:59.837Z,316
2022-11-08T06:00:31.290Z,275
2022-11-08T06:01:04.070Z,295
2022-11-08T06:01:34.419Z,295
2022-11-08T06:01:51.094Z,295
2022-11-08T06:02:23.258Z,288
2022-11-08T06:02:40.259Z,289
2022-11-08T06:03:11.679Z,289
2022-11-08T06:03:34.188Z,346
2022-11-08T06:03:58.990Z,27
2022-11-08T06:04:30.976Z,34
2022-11-08T06:05:03.204Z,35
2022-11-08T06:05:34.284Z,35
2022-11-08T06:05:51.147Z,35
2022-11-08T06:06:23.829Z,35
2022-11-08T06:06:40.889Z,35
2022-11-08T06:07:11.185Z,30
2022-11-08T06:07:34.103Z,30
2022-11-08T06:07:58.962Z,37
2022-11-08T06:08:31.867Z,36
2022-11-08T06:09:03.085Z,36
2022-11-08T06:09:35.399Z,36
2022-11-08T06:10:07.060Z,36
2022-11-08T06:10:34.330Z,36
2022-11-08T06:10:55.158Z,36
2022-11-08T06:11:27.142Z,36
2022-11-08T06:11:59.634Z,36
2022-11-08T06:12:30.938Z,37
2022-11-08T06:13:03.810Z,36
2022-11-08T06:13:34.370Z,36
2022-11-08T06:13:51.200Z,36
2022-11-08T06:14:23.026Z,36
2022-11-08T06:14:40.106Z,36
2022-11-08T06:15:12.101Z,36
2022-11-08T06:15:34.239Z,36
2022-11-08T06:15:59.294Z,36
2022-11-08T06:16:31.455Z,36
2022-11-08T06:17:02.903Z,36
2022-11-08T06:17:34.113Z,36
2022-11-08T06:17:51.147Z,36
2022-11-08T06:18:23.606Z,36
2022-11-08T06:18:40.732Z,36
2022-11-08T06:19:11.012Z,36
2022-11-08T06:19:34.578Z,36
2022-11-08T06:19:59.032Z,36
2022-11-08T06:20:32.166Z,36
2022-11-08T06:21:02.920Z,327
2022-11-08T06:21:35.059Z,20
2022-11-08T06:22:07.131Z,29
2022-11-08T06:22:34.120Z,29
2022-11-08T06:22:54.953Z,30
2022-11-08T06:23:27.008Z,29
2022-11-08T06:23:59.642Z,30
2022-11-08T06:24:30.929Z,29
2022-11-08T06:25:04.079Z,29
2022-11-08T06:25:34.135Z,29
2022-11-08T06:25:51.298Z,29
2022-11-08T06:26:23.124Z,30
2022-11-08T06:26:40.300Z,30
2022-11-08T06:27:11.915Z,343
2022-11-08T06:27:34.364Z,344
2022-11-08T06:27:59.069Z,79
2022-11-08T06:28:31.027Z,313
2022-11-08T06:29:02.968Z,341
2022-11-08T06:29:34.123Z,48
2022-11-08T06:30:07.331Z,327
2022-11-08T06:30:34.210Z,327
2022-11-08T06:30:55.095Z,327